Rechercher aéroport 
image banner adimage banner ad
image banner ad

SVBW - San Pablo De Barinas

Situé à Barinas, Venezuela

ICAO - SVBW, IATA -

Données fournies par Airmate  

Information générale

Coordonnées: N7°46'0" W70°38'0"
Élévation : 921 feet MSL.
 
Voir autres Aéroports à Bolívar

Données opérationnelles

Accessible au public
Heure actuelle UTC:
Heure actuelle locale:
METAR: SVGD 261002Z AUTO 29002KT NCD 25/25 Q1013
Voir NOTAMs / SUP AIP / TFR affectant cet aéroport [VIEW]
Fréquences de communication: [VIEW]

Pistes:

Identifiant RWYQFULongueur (ft)Largeur (ft)SurfaceLDA (ft)
0500
2300

Coordonnées de l'aéroport

Adresse: Barinas Venezuela

Vue satellite de SVBW